Time;durP1;ratioP1;P1;durP2;ratioP2;P2;SDS_P1;SDS_P2;PMS_P1;PMS_P2;Temp;Humidity;BMP_temperature;BMP_pressure;BME280_temperature;BME280_humidity;BME280_pressure;Samples;Min_cycle;Max_cycle;Signal;HPM_P1;HPM_P2
2021/12/05 00:20:34;;;;;;;6.85;2.80;;;;;;;;;;4969678;28;20153;-66
2021/12/05 00:23:02;;;;;;;10.27;3.08;;;;;;;;;;4966484;28;20023;-66
2021/12/05 00:25:30;;;;;;;7.63;2.92;;;;;;;;;;4968993;28;20031;-65
2021/12/05 00:29:03;;;;;;;8.43;3.05;;;;;;;;;;4951060;28;20035;-66
2021/12/05 00:33:34;;;;;;;6.50;2.65;;;;;;;;;;4960679;28;20096;-66
2021/12/05 00:51:57;;;;;;;6.32;2.53;;;;;;;;;;4966257;28;20887;-65
2021/12/05 01:00:05;;;;;;;11.35;2.58;;;;;;;;;;4962214;28;20070;-67
2021/12/05 01:11:23;;;;;;;5.00;2.35;;;;;;;;;;4963008;28;20178;-64
2021/12/05 01:16:22;;;;;;;3.75;2.10;;;;;;;;;;4966270;28;20507;-65
2021/12/05 01:18:48;;;;;;;5.18;2.10;;;;;;;;;;4961694;28;20406;-66
2021/12/05 01:21:18;;;;;;;3.17;2.13;;;;;;;;;;4964048;28;20053;-65
2021/12/05 01:24:04;;;;;;;4.07;2.13;;;;;;;;;;4962913;28;20030;-65
2021/12/05 01:29:28;;;;;;;5.70;2.10;;;;;;;;;;4964890;28;20105;-66
2021/12/05 01:32:13;;;;;;;5.68;2.15;;;;;;;;;;4963725;28;20035;-65
2021/12/05 02:01:26;;;;;;;5.15;2.13;;;;;;;;;;4963437;28;20041;-67
2021/12/05 02:09:49;;;;;;;3.55;2.00;;;;;;;;;;4961761;28;20114;-65
2021/12/05 02:32:22;;;;;;;5.80;2.08;;;;;;;;;;4963880;28;20037;-67
2021/12/05 02:37:16;;;;;;;9.20;1.90;;;;;;;;;;4961664;28;20034;-64
2021/12/05 02:42:24;;;;;;;6.05;2.00;;;;;;;;;;4966088;28;20448;-66
2021/12/05 02:44:50;;;;;;;5.20;2.03;;;;;;;;;;4964846;28;20027;-66
2021/12/05 02:47:19;;;;;;;8.70;1.88;;;;;;;;;;4963969;28;20086;-66
2021/12/05 02:49:49;;;;;;;5.63;1.58;;;;;;;;;;4965735;28;20026;-67
2021/12/05 02:52:24;;;;;;;9.35;2.15;;;;;;;;;;4964256;28;20532;-66
2021/12/05 02:54:54;;;;;;;5.13;1.60;;;;;;;;;;4964629;28;20030;-66
2021/12/05 02:58:15;;;;;;;7.38;1.73;;;;;;;;;;4963766;28;20106;-64
2021/12/05 03:00:13;;;;;;;6.53;1.80;;;;;;;;;;4967343;28;20473;-64
2021/12/05 03:02:42;;;;;;;2.85;1.38;;;;;;;;;;4963434;28;20050;-67
2021/12/05 03:05:14;;;;;;;6.75;1.80;;;;;;;;;;4964709;28;20090;-66
2021/12/05 03:07:42;;;;;;;9.23;1.80;;;;;;;;;;4964775;28;20034;-67
2021/12/05 03:10:11;;;;;;;6.50;1.90;;;;;;;;;;4964963;28;20063;-66
2021/12/05 03:12:38;;;;;;;5.72;2.38;;;;;;;;;;4965129;28;20031;-65
2021/12/05 03:15:08;;;;;;;8.93;1.90;;;;;;;;;;4965634;28;20042;-67
2021/12/05 03:17:34;;;;;;;4.63;2.03;;;;;;;;;;4967572;28;20133;-67
2021/12/05 03:20:02;;;;;;;4.32;1.65;;;;;;;;;;4964674;28;20095;-64
2021/12/05 03:22:27;;;;;;;5.00;2.10;;;;;;;;;;4964267;28;20026;-64
2021/12/05 03:24:53;;;;;;;5.80;2.28;;;;;;;;;;4966320;28;20077;-65
2021/12/05 03:27:18;;;;;;;6.18;1.88;;;;;;;;;;4953415;28;20026;-64
2021/12/05 03:29:44;;;;;;;7.07;1.80;;;;;;;;;;4968518;28;20054;-65
2021/12/05 03:32:10;;;;;;;8.18;1.73;;;;;;;;;;4967736;28;20036;-65
2021/12/05 03:34:35;;;;;;;5.18;1.70;;;;;;;;;;4966931;28;20487;-64
2021/12/05 03:37:01;;;;;;;5.38;1.30;;;;;;;;;;4966730;28;20018;-64
2021/12/05 03:39:27;;;;;;;6.05;1.55;;;;;;;;;;4966282;28;20069;-65
2021/12/05 03:41:55;;;;;;;3.25;1.40;;;;;;;;;;4967088;28;20034;-64
2021/12/05 03:44:24;;;;;;;6.07;1.50;;;;;;;;;;4966777;28;20395;-65
2021/12/05 03:46:53;;;;;;;5.13;1.50;;;;;;;;;;4966070;28;20105;-65
2021/12/05 03:49:18;;;;;;;11.32;1.70;;;;;;;;;;4966769;28;20054;-65
2021/12/05 03:51:57;;;;;;;6.45;1.38;;;;;;;;;;4964719;28;20097;-64
2021/12/05 03:54:22;;;;;;;9.70;1.60;;;;;;;;;;4967743;28;20121;-65
2021/12/05 03:56:49;;;;;;;6.47;1.58;;;;;;;;;;4969826;28;20149;-65
2021/12/05 03:59:17;;;;;;;5.65;1.65;;;;;;;;;;4969405;28;20057;-65
2021/12/05 04:01:43;;;;;;;5.82;1.50;;;;;;;;;;4964462;28;20495;-64
2021/12/05 04:04:10;;;;;;;4.57;1.52;;;;;;;;;;4968528;28;20117;-65
2021/12/05 04:06:37;;;;;;;10.05;1.30;;;;;;;;;;4968874;28;20038;-65
2021/12/05 04:09:10;;;;;;;4.78;1.10;;;;;;;;;;4965982;28;20038;-64
2021/12/05 04:11:43;;;;;;;4.47;1.30;;;;;;;;;;4969684;28;20077;-64
2021/12/05 04:14:12;;;;;;;4.10;1.37;;;;;;;;;;4966127;28;20149;-65
2021/12/05 04:16:39;;;;;;;3.40;1.30;;;;;;;;;;4969182;28;20265;-65
2021/12/05 04:19:05;;;;;;;5.72;1.20;;;;;;;;;;4965194;28;20023;-64
2021/12/05 04:21:35;;;;;;;5.82;1.15;;;;;;;;;;4965883;28;20058;-64
2021/12/05 04:24:01;;;;;;;8.70;1.38;;;;;;;;;;4967716;28;20041;-64
2021/12/05 04:26:26;;;;;;;5.78;1.48;;;;;;;;;;4962669;28;20367;-65
2021/12/05 04:28:53;;;;;;;7.00;1.42;;;;;;;;;;4966325;28;20030;-65
2021/12/05 04:31:20;;;;;;;6.50;1.35;;;;;;;;;;4970586;28;20058;-65
2021/12/05 04:33:46;;;;;;;6.60;1.17;;;;;;;;;;4963370;28;20058;-65
2021/12/05 04:36:12;;;;;;;8.10;1.40;;;;;;;;;;4966952;28;20054;-65
2021/12/05 04:38:37;;;;;;;4.65;1.02;;;;;;;;;;4967855;28;20061;-64
2021/12/05 04:41:04;;;;;;;6.50;1.13;;;;;;;;;;4967138;28;20585;-66
2021/12/05 04:43:36;;;;;;;4.40;1.20;;;;;;;;;;4965545;28;20031;-66
2021/12/05 04:46:07;;;;;;;2.85;1.25;;;;;;;;;;4964948;28;20033;-64
2021/12/05 04:48:33;;;;;;;6.97;1.10;;;;;;;;;;4966982;28;20053;-63
2021/12/05 04:50:59;;;;;;;7.13;1.50;;;;;;;;;;4962797;28;20039;-66
2021/12/05 04:53:27;;;;;;;6.78;1.20;;;;;;;;;;4966150;28;20026;-66
2021/12/05 04:55:53;;;;;;;5.30;1.13;;;;;;;;;;4961308;28;20484;-66
2021/12/05 04:58:19;;;;;;;6.50;1.60;;;;;;;;;;4966276;28;20443;-66
2021/12/05 05:00:46;;;;;;;3.38;1.00;;;;;;;;;;4965452;28;20026;-65
2021/12/05 05:03:13;;;;;;;6.15;1.67;;;;;;;;;;4966740;28;20038;-65
2021/12/05 05:05:45;;;;;;;7.10;1.17;;;;;;;;;;4964318;28;20042;-65
2021/12/05 05:08:10;;;;;;;16.13;2.03;;;;;;;;;;4967679;28;20133;-65
2021/12/05 05:10:36;;;;;;;8.95;1.35;;;;;;;;;;4965034;28;20078;-65
2021/12/05 05:13:01;;;;;;;3.33;1.20;;;;;;;;;;4967411;28;20030;-65
2021/12/05 05:15:29;;;;;;;5.85;1.50;;;;;;;;;;4965728;28;20493;-65
2021/12/05 05:17:56;;;;;;;4.82;1.00;;;;;;;;;;4967353;28;20090;-65
2021/12/05 05:20:36;;;;;;;2.58;0.90;;;;;;;;;;4966020;28;20038;-64
2021/12/05 05:47:38;;;;;;;;;;;;;;;;;;4966801;28;20090;-64
2021/12/05 05:50:04;;;;;;;7.82;2.00;;;;;;;;;;4967737;28;19922;-65
2021/12/05 05:52:31;;;;;;;5.90;1.50;;;;;;;;;;4968104;28;20042;-64
2021/12/05 05:54:58;;;;;;;9.60;2.03;;;;;;;;;;4967128;28;20082;-65
2021/12/05 06:00:08;;;;;;;7.43;2.45;;;;;;;;;;4968620;28;20801;-64
2021/12/05 06:05:18;;;;;;;17.98;6.00;;;;;;;;;;4967383;28;20137;-65
2021/12/05 06:07:45;;;;;;;18.15;5.95;;;;;;;;;;4961749;28;20130;-65
2021/12/05 06:10:14;;;;;;;18.10;4.95;;;;;;;;;;4966440;28;20029;-64
2021/12/05 06:12:41;;;;;;;22.38;5.80;;;;;;;;;;4970221;28;20030;-64
2021/12/05 06:15:09;;;;;;;18.25;4.60;;;;;;;;;;4971273;28;20102;-64
2021/12/05 06:17:35;;;;;;;12.10;3.75;;;;;;;;;;4973580;28;20118;-64
2021/12/05 06:20:01;;;;;;;9.07;3.00;;;;;;;;;;4972065;28;20117;-64
2021/12/05 06:22:26;;;;;;;8.65;2.72;;;;;;;;;;4972332;28;20102;-64
2021/12/05 06:24:52;;;;;;;5.95;2.75;;;;;;;;;;4972254;28;20471;-64
2021/12/05 06:27:18;;;;;;;8.35;2.25;;;;;;;;;;4970744;28;20456;-64
2021/12/05 06:29:51;;;;;;;9.00;2.75;;;;;;;;;;4972507;28;20031;-64
2021/12/05 06:37:49;;;;;;;5.85;2.20;;;;;;;;;;4970931;28;20066;-64
2021/12/05 06:40:33;;;;;;;7.85;2.55;;;;;;;;;;4973558;28;20039;-64
2021/12/05 06:43:05;;;;;;;;;;;;;;;;;;4972284;28;20038;-64
2021/12/05 06:46:08;;;;;;;5.43;1.73;;;;;;;;;;4973317;28;20336;-64
2021/12/05 06:48:22;;;;;;;7.28;2.03;;;;;;;;;;4972670;28;20042;-63
2021/12/05 06:50:47;;;;;;;9.30;2.15;;;;;;;;;;4970642;28;20033;-64
2021/12/05 06:53:13;;;;;;;8.57;1.80;;;;;;;;;;4972994;28;20122;-64
2021/12/05 06:55:38;;;;;;;6.72;1.70;;;;;;;;;;4969638;28;20482;-64
2021/12/05 06:58:04;;;;;;;7.03;2.20;;;;;;;;;;4971564;28;20038;-64
2021/12/05 07:00:31;;;;;;;7.20;2.33;;;;;;;;;;4974823;28;20078;-64
2021/12/05 07:02:57;;;;;;;7.97;2.03;;;;;;;;;;4973304;28;20026;-64
2021/12/05 07:05:44;;;;;;;12.85;2.30;;;;;;;;;;4971047;28;20031;-64
2021/12/05 07:08:12;;;;;;;4.07;2.05;;;;;;;;;;4971832;28;20178;-64
2021/12/05 07:10:50;;;;;;;7.68;2.00;;;;;;;;;;4972902;28;20037;-64
2021/12/05 07:25:54;;;;;;;4.68;1.75;;;;;;;;;;4969468;28;20369;-64
2021/12/05 07:42:15;;;;;;;6.82;1.80;;;;;;;;;;4970443;28;20070;-64
2021/12/05 07:44:40;;;;;;;9.10;1.52;;;;;;;;;;4967834;28;20038;-64
2021/12/05 07:47:06;;;;;;;5.95;1.38;;;;;;;;;;4970212;28;20023;-64
2021/12/05 07:49:32;;;;;;;6.22;1.42;;;;;;;;;;4970198;28;20368;-64
2021/12/05 07:51:57;;;;;;;4.47;1.00;;;;;;;;;;4964533;28;20038;-64
2021/12/05 07:54:41;;;;;;;9.68;2.42;;;;;;;;;;4969677;28;20034;-64
2021/12/05 08:16:08;;;;;;;6.20;1.30;;;;;;;;;;4965572;28;20033;-64
2021/12/05 08:18:34;;;;;;;4.18;0.90;;;;;;;;;;4970044;28;21360;-64
2021/12/05 08:21:01;;;;;;;4.57;1.40;;;;;;;;;;4967679;28;20053;-65
2021/12/05 08:23:27;;;;;;;2.92;0.90;;;;;;;;;;4967463;28;20037;-65
2021/12/05 08:26:04;;;;;;;3.53;0.98;;;;;;;;;;4968065;28;20520;-64
2021/12/05 08:36:57;;;;;;;3.95;1.15;;;;;;;;;;4967145;28;20113;-64
2021/12/05 09:27:53;;;;;;;3.75;0.95;;;;;;;;;;4966142;28;20035;-64
2021/12/05 09:53:24;;;;;;;1.95;1.02;;;;;;;;;;4966682;28;20395;-65
2021/12/05 10:06:43;;;;;;;4.10;1.30;;;;;;;;;;4965887;28;20047;-65
2021/12/05 10:17:18;;;;;;;;;;;;;;;;;;4962995;28;20073;-64
2021/12/05 10:37:16;;;;;;;4.40;1.20;;;;;;;;;;4967595;28;20022;-66
2021/12/05 10:39:41;;;;;;;5.25;1.50;;;;;;;;;;4964001;28;20034;-66
2021/12/05 10:42:43;;;;;;;2.92;1.30;;;;;;;;;;4965773;28;20042;-65
2021/12/05 10:45:27;;;;;;;4.82;1.40;;;;;;;;;;4962905;28;20082;-65
2021/12/05 10:47:54;;;;;;;;;;;;;;;;;;4967006;28;20027;-65
2021/12/05 10:50:29;;;;;;;4.18;1.33;;;;;;;;;;4966064;28;19921;-65
2021/12/05 10:53:16;;;;;;;3.10;0.98;;;;;;;;;;4964939;28;20043;-66
2021/12/05 10:55:41;;;;;;;3.05;1.20;;;;;;;;;;4967098;28;20018;-65
2021/12/05 10:58:07;;;;;;;3.63;1.38;;;;;;;;;;4967354;28;20097;-65
2021/12/05 11:00:32;;;;;;;3.33;1.48;;;;;;;;;;4972316;28;20055;-66
2021/12/05 11:03:14;;;;;;;3.22;1.05;;;;;;;;;;4969166;28;20041;-64
2021/12/05 11:05:41;;;;;;;2.60;1.35;;;;;;;;;;4969536;28;20397;-66
2021/12/05 11:08:31;;;;;;;2.78;0.90;;;;;;;;;;4967999;28;20152;-66
2021/12/05 11:11:11;;;;;;;3.20;0.90;;;;;;;;;;4968473;28;20504;-66
2021/12/05 11:13:39;;;;;;;3.05;0.70;;;;;;;;;;4970498;28;20034;-66
2021/12/05 11:16:42;;;;;;;2.10;0.70;;;;;;;;;;4968546;28;20037;-64
2021/12/05 11:19:23;;;;;;;2.75;0.90;;;;;;;;;;4968069;28;20027;-65
2021/12/05 11:21:55;;;;;;;1.65;1.00;;;;;;;;;;4965239;28;20037;-66
2021/12/05 11:24:24;;;;;;;1.75;0.90;;;;;;;;;;4969323;28;20069;-65
2021/12/05 11:27:10;;;;;;;2.50;1.00;;;;;;;;;;4963389;28;20236;-66
2021/12/05 11:29:43;;;;;;;2.17;0.90;;;;;;;;;;4966732;28;20520;-66
2021/12/05 11:32:12;;;;;;;3.45;0.85;;;;;;;;;;4963491;28;20130;-64
2021/12/05 11:34:38;;;;;;;2.08;0.98;;;;;;;;;;4964523;28;20576;-65
2021/12/05 11:37:04;;;;;;;1.70;0.90;;;;;;;;;;4970198;28;20142;-64
2021/12/05 11:39:30;;;;;;;2.75;0.98;;;;;;;;;;4962950;28;20471;-65
2021/12/05 11:41:56;;;;;;;1.80;0.85;;;;;;;;;;4966985;28;20030;-66
2021/12/05 11:44:23;;;;;;;2.83;1.00;;;;;;;;;;4965323;28;20455;-66
2021/12/05 11:46:49;;;;;;;2.00;0.80;;;;;;;;;;4967372;28;20062;-65
2021/12/05 11:49:23;;;;;;;2.05;0.90;;;;;;;;;;4965246;28;20132;-66
2021/12/05 11:51:53;;;;;;;4.45;0.93;;;;;;;;;;4964643;28;20033;-66
2021/12/05 11:54:26;;;;;;;2.05;0.70;;;;;;;;;;4967990;28;20090;-65
2021/12/05 11:57:11;;;;;;;2.30;0.70;;;;;;;;;;4963712;28;20110;-66
2021/12/05 11:59:46;;;;;;;2.28;0.70;;;;;;;;;;4970778;28;20189;-67
2021/12/05 12:02:17;;;;;;;1.13;0.60;;;;;;;;;;4964467;28;20035;-65
2021/12/05 12:04:49;;;;;;;0.98;0.60;;;;;;;;;;4965218;28;20162;-66
2021/12/05 12:07:17;;;;;;;1.25;0.65;;;;;;;;;;4965451;28;20061;-66
2021/12/05 12:09:44;;;;;;;0.70;0.55;;;;;;;;;;4964970;28;20031;-65
2021/12/05 12:12:10;;;;;;;2.42;1.00;;;;;;;;;;4966852;28;20019;-67
2021/12/05 12:14:35;;;;;;;1.50;0.77;;;;;;;;;;4967448;28;20415;-64
2021/12/05 12:17:09;;;;;;;1.90;0.55;;;;;;;;;;4966855;28;20030;-64
2021/12/05 12:19:36;;;;;;;;;;;;;;;;;;4966645;28;20102;-64
2021/12/05 12:22:03;;;;;;;1.35;0.65;;;;;;;;;;4964059;28;19928;-66
2021/12/05 12:24:30;;;;;;;3.17;0.70;;;;;;;;;;4968998;28;20093;-65
2021/12/05 12:26:55;;;;;;;0.40;0.40;;;;;;;;;;4966118;28;20117;-64
2021/12/05 12:29:23;;;;;;;2.60;0.77;;;;;;;;;;4965808;28;20113;-65
2021/12/05 12:31:50;;;;;;;1.65;0.70;;;;;;;;;;4963154;28;20046;-64
2021/12/05 12:34:19;;;;;;;1.13;0.70;;;;;;;;;;4961653;28;20035;-64
2021/12/05 12:36:48;;;;;;;1.23;0.60;;;;;;;;;;4966266;28;20783;-67
2021/12/05 12:39:17;;;;;;;1.25;0.55;;;;;;;;;;4965942;28;20030;-65
2021/12/05 12:42:13;;;;;;;1.58;0.43;;;;;;;;;;4965246;28;20454;-67
2021/12/05 12:45:09;;;;;;;3.03;0.70;;;;;;;;;;4963437;28;20069;-65
2021/12/05 12:47:46;;;;;;;2.38;0.50;;;;;;;;;;4965394;28;20046;-65
2021/12/05 12:50:19;;;;;;;0.85;0.50;;;;;;;;;;4960896;28;20031;-65
2021/12/05 12:53:14;;;;;;;1.50;0.52;;;;;;;;;;4961271;28;20687;-65
2021/12/05 12:55:55;;;;;;;1.65;0.50;;;;;;;;;;4965694;28;20106;-66
2021/12/05 12:58:43;;;;;;;1.90;0.63;;;;;;;;;;4961541;28;20035;-64
2021/12/05 13:01:19;;;;;;;1.17;0.57;;;;;;;;;;4967114;28;20030;-63
2021/12/05 13:12:48;;;;;;;2.65;0.63;;;;;;;;;;4968203;28;20030;-66
2021/12/05 13:15:28;;;;;;;1.10;0.47;;;;;;;;;;4965710;28;20085;-66
2021/12/05 13:18:00;;;;;;;2.53;0.50;;;;;;;;;;4961391;28;20055;-63
2021/12/05 13:20:53;;;;;;;1.17;0.30;;;;;;;;;;4963947;28;20122;-67
2021/12/05 13:23:27;;;;;;;2.70;0.70;;;;;;;;;;4963777;28;20169;-66
2021/12/05 13:26:11;;;;;;;0.60;0.47;;;;;;;;;;4965710;28;20372;-65
2021/12/05 13:28:39;;;;;;;1.08;0.60;;;;;;;;;;4965302;28;20031;-66
2021/12/05 13:31:53;;;;;;;2.55;0.80;;;;;;;;;;4967161;28;20033;-66
2021/12/05 13:34:19;;;;;;;;;;;;;;;;;;4963963;28;20030;-66
2021/12/05 13:36:49;;;;;;;1.58;0.40;;;;;;;;;;4969127;28;19961;-65
2021/12/05 13:39:32;;;;;;;1.38;0.43;;;;;;;;;;4963227;28;20369;-65
2021/12/05 13:42:23;;;;;;;0.73;0.40;;;;;;;;;;4967460;28;20125;-65
2021/12/05 13:45:13;;;;;;;0.30;0.28;;;;;;;;;;4965728;28;20027;-64
2021/12/05 13:47:53;;;;;;;1.67;0.43;;;;;;;;;;4967872;28;20082;-66
2021/12/05 13:50:19;;;;;;;0.47;0.45;;;;;;;;;;4962821;28;20084;-67
2021/12/05 13:53:02;;;;;;;1.38;0.50;;;;;;;;;;4965427;28;20038;-67
2021/12/05 13:55:37;;;;;;;2.25;0.55;;;;;;;;;;4963914;28;20117;-65
2021/12/05 13:58:40;;;;;;;1.92;0.57;;;;;;;;;;4964514;28;20033;-66
2021/12/05 14:01:30;;;;;;;0.50;0.45;;;;;;;;;;4966678;28;20035;-64
2021/12/05 14:04:24;;;;;;;2.00;0.40;;;;;;;;;;4963851;28;20087;-66
2021/12/05 14:06:53;;;;;;;2.63;0.60;;;;;;;;;;4966154;28;20753;-65
2021/12/05 14:09:26;;;;;;;0.57;0.50;;;;;;;;;;4966014;28;20537;-66
2021/12/05 14:12:19;;;;;;;3.83;0.47;;;;;;;;;;4964769;28;20114;-65
2021/12/05 14:14:49;;;;;;;1.45;0.50;;;;;;;;;;4965509;28;20468;-65
2021/12/05 14:17:17;;;;;;;1.45;0.60;;;;;;;;;;4963992;28;20035;-65
2021/12/05 14:19:46;;;;;;;1.20;0.38;;;;;;;;;;4968050;28;20027;-66
2021/12/05 14:22:14;;;;;;;0.40;0.30;;;;;;;;;;4961693;28;20420;-66
2021/12/05 14:24:44;;;;;;;1.80;0.70;;;;;;;;;;4968001;28;20141;-64
2021/12/05 14:27:12;;;;;;;1.40;0.60;;;;;;;;;;4966848;28;20077;-66
2021/12/05 14:29:40;;;;;;;1.48;0.60;;;;;;;;;;4966947;28;20107;-66
2021/12/05 14:32:25;;;;;;;1.45;0.70;;;;;;;;;;4968959;28;20538;-67
2021/12/05 14:34:56;;;;;;;1.25;0.57;;;;;;;;;;4965367;28;20030;-66
2021/12/05 14:37:24;;;;;;;1.92;0.40;;;;;;;;;;4973605;28;20031;-65
2021/12/05 14:39:52;;;;;;;3.13;0.70;;;;;;;;;;4970231;28;20041;-65
2021/12/05 14:42:22;;;;;;;1.27;0.55;;;;;;;;;;4970523;28;20475;-65
2021/12/05 14:44:51;;;;;;;0.70;0.60;;;;;;;;;;4969470;28;20449;-63
2021/12/05 14:47:22;;;;;;;1.58;0.60;;;;;;;;;;4966471;28;20062;-65
2021/12/05 14:49:57;;;;;;;0.95;0.47;;;;;;;;;;4971553;28;20376;-65
2021/12/05 14:52:31;;;;;;;0.50;0.38;;;;;;;;;;4969712;28;20031;-66
2021/12/05 14:54:58;;;;;;;1.80;0.60;;;;;;;;;;4970143;28;20026;-65
2021/12/05 14:57:29;;;;;;;1.00;0.80;;;;;;;;;;4969174;28;20034;-65
2021/12/05 15:00:06;;;;;;;1.95;1.08;;;;;;;;;;4969916;28;20027;-66
2021/12/05 15:02:32;;;;;;;1.42;0.77;;;;;;;;;;4972736;28;20236;-66
2021/12/05 15:04:57;;;;;;;2.10;0.82;;;;;;;;;;4968954;28;20253;-65
2021/12/05 15:07:25;;;;;;;1.88;1.00;;;;;;;;;;4966150;28;20023;-65
2021/12/05 15:09:53;;;;;;;2.20;1.00;;;;;;;;;;4967825;28;20054;-64
2021/12/05 15:12:31;;;;;;;1.83;0.60;;;;;;;;;;4969821;28;20082;-65
2021/12/05 15:15:00;;;;;;;1.08;0.50;;;;;;;;;;4969426;28;20089;-65
2021/12/05 15:17:28;;;;;;;1.73;0.38;;;;;;;;;;4965101;28;20159;-66
2021/12/05 15:19:57;;;;;;;1.20;0.30;;;;;;;;;;4965419;28;20026;-65
2021/12/05 15:22:23;;;;;;;2.10;0.47;;;;;;;;;;4968534;28;20035;-64
2021/12/05 15:24:55;;;;;;;0.65;0.40;;;;;;;;;;4968077;28;21269;-66
2021/12/05 15:27:23;;;;;;;1.58;0.65;;;;;;;;;;4971296;28;20411;-65
2021/12/05 15:29:59;;;;;;;0.85;0.45;;;;;;;;;;4968869;28;20498;-66
2021/12/05 15:32:33;;;;;;;2.15;1.00;;;;;;;;;;4969132;28;20916;-64
2021/12/05 15:35:09;;;;;;;1.45;0.60;;;;;;;;;;4965895;28;20034;-64
2021/12/05 15:37:34;;;;;;;1.95;0.70;;;;;;;;;;4971581;28;20095;-66
2021/12/05 15:40:04;;;;;;;3.17;1.60;;;;;;;;;;4969303;28;20050;-65
2021/12/05 15:42:37;;;;;;;3.88;2.10;;;;;;;;;;4969449;28;20122;-66
2021/12/05 15:45:09;;;;;;;3.97;2.15;;;;;;;;;;4966367;28;20072;-66
2021/12/05 15:47:36;;;;;;;5.07;1.27;;;;;;;;;;4967181;28;20082;-65
2021/12/05 15:50:17;;;;;;;1.63;0.95;;;;;;;;;;4966573;28;20086;-64
2021/12/05 15:52:47;;;;;;;2.20;1.02;;;;;;;;;;4968996;28;20480;-67
2021/12/05 15:55:17;;;;;;;3.85;1.10;;;;;;;;;;4967101;28;20046;-66
2021/12/05 15:57:49;;;;;;;2.22;0.85;;;;;;;;;;4967780;28;20395;-65
2021/12/05 16:00:41;;;;;;;2.53;0.70;;;;;;;;;;4966490;28;20133;-65
2021/12/05 16:03:15;;;;;;;2.22;0.60;;;;;;;;;;4966844;28;20057;-66
2021/12/05 16:05:43;;;;;;;1.52;0.88;;;;;;;;;;4969016;28;20138;-68
2021/12/05 16:08:11;;;;;;;8.23;4.55;;;;;;;;;;4965417;28;20057;-66
2021/12/05 16:10:41;;;;;;;2.70;1.60;;;;;;;;;;4964941;28;20039;-66
2021/12/05 16:13:11;;;;;;;4.20;1.52;;;;;;;;;;4964955;28;20040;-67
2021/12/05 16:15:38;;;;;;;2.58;1.70;;;;;;;;;;4967117;28;20038;-67
2021/12/05 16:18:04;;;;;;;2.55;1.17;;;;;;;;;;4970423;28;20031;-66
2021/12/05 16:20:44;;;;;;;2.55;1.40;;;;;;;;;;4964875;28;20038;-68
2021/12/05 16:23:15;;;;;;;1.27;1.05;;;;;;;;;;4962810;28;20391;-67
2021/12/05 16:26:06;;;;;;;2.20;1.23;;;;;;;;;;4965305;28;20053;-67
2021/12/05 16:29:05;;;;;;;3.13;1.35;;;;;;;;;;4964159;28;20109;-66
2021/12/05 16:31:39;;;;;;;3.70;2.03;;;;;;;;;;4974055;28;20144;-65
2021/12/05 16:34:10;;;;;;;4.68;1.90;;;;;;;;;;4967267;28;20030;-64
2021/12/05 16:36:37;;;;;;;2.15;1.40;;;;;;;;;;4966457;28;20262;-67
2021/12/05 16:39:13;;;;;;;1.52;0.85;;;;;;;;;;4965938;28;20118;-65
2021/12/05 16:41:48;;;;;;;3.20;1.15;;;;;;;;;;4965373;28;20035;-66
2021/12/05 16:44:16;;;;;;;3.50;1.23;;;;;;;;;;4966602;28;20042;-67
2021/12/05 16:46:55;;;;;;;2.28;1.30;;;;;;;;;;4965759;28;20086;-66
2021/12/05 16:49:27;;;;;;;2.45;1.35;;;;;;;;;;4963926;28;20031;-67
2021/12/05 16:51:55;;;;;;;2.08;1.00;;;;;;;;;;4969065;28;20047;-66
2021/12/05 16:54:28;;;;;;;1.90;1.08;;;;;;;;;;4964279;28;20141;-68
2021/12/05 16:57:03;;;;;;;2.95;0.90;;;;;;;;;;4961722;28;20034;-67
2021/12/05 16:59:39;;;;;;;1.58;0.90;;;;;;;;;;4965135;28;20041;-66
2021/12/05 17:02:24;;;;;;;1.27;0.93;;;;;;;;;;4962936;28;20562;-67
2021/12/05 17:05:11;;;;;;;1.73;1.13;;;;;;;;;;4967204;28;20416;-66
2021/12/05 17:07:43;;;;;;;2.03;0.85;;;;;;;;;;4962962;28;20073;-68
2021/12/05 17:10:37;;;;;;;2.35;0.90;;;;;;;;;;4966135;28;20023;-66
2021/12/05 17:13:08;;;;;;;1.95;0.90;;;;;;;;;;4966996;28;20483;-65
2021/12/05 17:15:42;;;;;;;2.00;0.90;;;;;;;;;;4969464;28;20085;-65
2021/12/05 17:18:15;;;;;;;3.85;1.33;;;;;;;;;;4966573;28;20023;-65
2021/12/05 17:20:48;;;;;;;3.78;1.10;;;;;;;;;;4967853;28;20053;-66
2021/12/05 17:23:19;;;;;;;2.28;0.95;;;;;;;;;;4966947;28;20554;-66
2021/12/05 17:25:48;;;;;;;3.00;1.33;;;;;;;;;;4969905;28;20126;-65
2021/12/05 17:28:19;;;;;;;3.28;1.40;;;;;;;;;;4968557;28;20059;-67
2021/12/05 17:30:54;;;;;;;2.15;1.10;;;;;;;;;;4967300;28;20090;-67
2021/12/05 17:33:36;;;;;;;1.77;0.93;;;;;;;;;;4965362;28;20114;-67
2021/12/05 17:36:28;;;;;;;1.17;0.95;;;;;;;;;;4967411;28;20085;-67
2021/12/05 17:39:11;;;;;;;5.45;3.58;;;;;;;;;;4970293;28;21361;-67
2021/12/05 17:41:37;;;;;;;2.53;1.40;;;;;;;;;;4980236;28;20022;-66
2021/12/05 17:44:04;;;;;;;5.47;1.75;;;;;;;;;;4964981;28;20479;-65
2021/12/05 17:46:31;;;;;;;2.78;1.30;;;;;;;;;;4969290;28;20038;-65
2021/12/05 17:48:58;;;;;;;2.90;1.10;;;;;;;;;;4965461;28;20374;-65
2021/12/05 17:51:32;;;;;;;1.95;1.30;;;;;;;;;;4965844;28;20475;-66
2021/12/05 17:53:58;;;;;;;5.07;1.40;;;;;;;;;;4969440;28;20023;-66
2021/12/05 17:56:38;;;;;;;4.50;1.40;;;;;;;;;;4966310;28;20033;-66
2021/12/05 17:59:13;;;;;;;5.30;1.50;;;;;;;;;;4967240;28;20445;-66
2021/12/05 18:04:27;;;;;;;4.70;1.70;;;;;;;;;;4966475;28;20392;-67
2021/12/05 18:06:54;;;;;;;5.20;2.00;;;;;;;;;;4964722;28;20094;-67
2021/12/05 18:09:19;;;;;;;5.22;2.22;;;;;;;;;;4965259;28;20114;-66
2021/12/05 18:11:45;;;;;;;3.40;1.95;;;;;;;;;;4965690;28;20539;-65
2021/12/05 18:14:11;;;;;;;3.33;1.75;;;;;;;;;;4963691;28;20546;-66
2021/12/05 18:16:37;;;;;;;3.13;1.83;;;;;;;;;;4967271;28;20033;-66
2021/12/05 18:19:11;;;;;;;4.82;2.03;;;;;;;;;;4968219;28;20642;-65
2021/12/05 18:21:38;;;;;;;4.75;1.85;;;;;;;;;;4966396;28;20034;-66
2021/12/05 18:24:12;;;;;;;6.82;2.83;;;;;;;;;;4960729;28;20445;-65
2021/12/05 18:26:39;;;;;;;5.90;2.97;;;;;;;;;;4965207;28;20043;-65
2021/12/05 18:29:08;;;;;;;5.57;2.88;;;;;;;;;;4961967;28;20022;-66
2021/12/05 18:31:35;;;;;;;7.22;2.90;;;;;;;;;;4967340;28;20025;-65
2021/12/05 18:34:08;;;;;;;8.07;2.70;;;;;;;;;;4969433;28;20458;-66
2021/12/05 18:36:38;;;;;;;4.72;2.50;;;;;;;;;;4965632;28;20058;-65
2021/12/05 18:39:05;;;;;;;4.85;2.67;;;;;;;;;;4965556;28;20026;-67
2021/12/05 18:41:34;;;;;;;4.50;2.55;;;;;;;;;;4967836;28;20050;-65
2021/12/05 18:44:01;;;;;;;6.32;2.95;;;;;;;;;;4967642;28;20073;-67
2021/12/05 18:46:27;;;;;;;4.78;2.80;;;;;;;;;;4964827;28;20081;-67
2021/12/05 18:48:52;;;;;;;5.63;2.80;;;;;;;;;;4961106;28;20039;-65
2021/12/05 18:51:20;;;;;;;3.78;2.58;;;;;;;;;;4968641;28;20031;-66
2021/12/05 18:53:46;;;;;;;4.97;2.58;;;;;;;;;;4961088;28;20030;-65
2021/12/05 18:56:12;;;;;;;4.78;2.40;;;;;;;;;;4968746;28;20088;-66
2021/12/05 18:58:42;;;;;;;4.63;2.85;;;;;;;;;;4964991;28;20026;-68
2021/12/05 19:06:46;;;;;;;7.30;2.60;;;;;;;;;;4965451;28;20144;-66
2021/12/05 19:11:58;;;;;;;;;;;;;;;;;;4966893;28;20035;-66
2021/12/05 19:14:41;;;;;;;6.13;2.90;;;;;;;;;;4965056;28;19914;-66
2021/12/05 19:17:09;;;;;;;3.08;2.20;;;;;;;;;;4966486;28;20030;-67
2021/12/05 19:19:38;;;;;;;6.03;2.63;;;;;;;;;;4966521;28;20117;-65
2021/12/05 19:22:05;;;;;;;7.65;3.13;;;;;;;;;;4968076;28;20977;-65
2021/12/05 19:24:31;;;;;;;4.50;2.95;;;;;;;;;;4968903;28;20165;-66
2021/12/05 19:26:59;;;;;;;5.32;2.80;;;;;;;;;;4967917;28;20030;-66
2021/12/05 19:29:28;;;;;;;3.97;2.63;;;;;;;;;;4969393;28;20031;-66
2021/12/05 19:31:55;;;;;;;3.80;2.38;;;;;;;;;;4972040;28;20027;-67
2021/12/05 19:34:21;;;;;;;9.32;3.15;;;;;;;;;;4968739;28;20030;-67
2021/12/05 19:36:47;;;;;;;6.00;3.20;;;;;;;;;;4968537;28;20103;-65
2021/12/05 19:39:14;;;;;;;7.88;3.50;;;;;;;;;;4965491;28;20030;-65
2021/12/05 19:41:41;;;;;;;6.15;3.50;;;;;;;;;;4971545;28;20027;-65
2021/12/05 19:44:07;;;;;;;10.23;2.95;;;;;;;;;;4965461;28;20027;-65
2021/12/05 19:46:35;;;;;;;6.63;3.17;;;;;;;;;;4967138;28;20056;-65
2021/12/05 19:49:01;;;;;;;5.70;3.20;;;;;;;;;;4972331;28;20467;-67
2021/12/05 19:51:27;;;;;;;5.63;3.20;;;;;;;;;;4969817;28;20030;-67
2021/12/05 19:53:55;;;;;;;5.30;3.22;;;;;;;;;;4970053;28;20046;-66
2021/12/05 19:56:22;;;;;;;8.18;3.25;;;;;;;;;;4967977;28;20042;-66
2021/12/05 19:58:47;;;;;;;5.28;3.08;;;;;;;;;;4967109;28;20785;-67
2021/12/05 20:01:13;;;;;;;4.05;2.88;;;;;;;;;;4965643;28;20031;-67
2021/12/05 20:03:40;;;;;;;6.80;3.03;;;;;;;;;;4970020;28;20026;-67
2021/12/05 20:06:07;;;;;;;6.20;2.80;;;;;;;;;;4969492;28;20034;-66
2021/12/05 20:08:34;;;;;;;5.43;3.05;;;;;;;;;;4971806;28;20042;-73
2021/12/05 20:11:00;;;;;;;3.92;2.92;;;;;;;;;;4971486;28;20038;-66
2021/12/05 20:13:27;;;;;;;6.38;3.00;;;;;;;;;;4966518;28;20376;-66
2021/12/05 20:15:52;;;;;;;5.40;3.00;;;;;;;;;;4970828;28;20019;-66
2021/12/05 20:18:18;;;;;;;4.88;2.90;;;;;;;;;;4968589;28;20093;-67
2021/12/05 20:20:46;;;;;;;6.82;3.10;;;;;;;;;;4970163;28;20054;-68
2021/12/05 20:23:14;;;;;;;5.75;2.95;;;;;;;;;;4968777;28;20081;-67
2021/12/05 20:25:40;;;;;;;5.88;2.85;;;;;;;;;;4970448;28;20034;-66
2021/12/05 20:28:07;;;;;;;5.03;3.22;;;;;;;;;;4967966;28;20026;-66
2021/12/05 20:30:34;;;;;;;4.15;2.70;;;;;;;;;;4968764;28;20042;-65
2021/12/05 20:33:01;;;;;;;4.22;3.00;;;;;;;;;;4970470;28;20059;-66
2021/12/05 20:35:27;;;;;;;3.72;2.70;;;;;;;;;;4969828;28;20126;-67
2021/12/05 20:37:57;;;;;;;5.65;2.80;;;;;;;;;;4967047;28;20758;-67
2021/12/05 20:40:26;;;;;;;5.95;3.20;;;;;;;;;;4969903;28;20037;-68
2021/12/05 20:42:51;;;;;;;3.40;2.35;;;;;;;;;;4969812;28;20095;-67